Time;durP1;ratioP1;P1;durP2;ratioP2;P2;SDS_P1;SDS_P2;PMS_P1;PMS_P2;Temp;Humidity;BMP_temperature;BMP_pressure;BME280_temperature;BME280_humidity;BME280_pressure;Samples;Min_cycle;Max_cycle;Signal;HPM_P1;HPM_P2
2021/10/27 00:02:10;;;;;;;38.78;25.50;;;;;;;9.65;79.91;100876.96;1785776;80;25378;-48
2021/10/27 00:04:39;;;;;;;44.30;27.25;;;;;;;9.61;80.00;100873.24;1785760;80;25525;-48
2021/10/27 00:07:07;;;;;;;41.23;25.82;;;;;;;9.57;79.99;100874.89;1785944;80;25374;-48
2021/10/27 00:09:35;;;;;;;38.40;24.98;;;;;;;9.53;79.94;100880.06;1785756;80;27344;-49
2021/10/27 00:12:05;;;;;;;38.02;24.63;;;;;;;9.49;79.83;100877.70;1785683;80;25540;-50
2021/10/27 00:14:32;;;;;;;42.10;25.72;;;;;;;9.44;80.00;100877.20;1785927;80;25436;-48
2021/10/27 00:17:04;;;;;;;40.92;25.72;;;;;;;9.42;80.30;100883.98;1785951;80;26759;-50
2021/10/27 00:19:34;;;;;;;39.40;25.37;;;;;;;9.39;80.21;100892.66;1785818;80;25374;-50
2021/10/27 00:22:03;;;;;;;;;;;;;;;9.35;80.58;100893.22;1788461;80;27391;-49
2021/10/27 00:24:30;;;;;;;45.30;26.87;;;;;;;9.32;81.04;100889.73;1785848;80;25559;-50
2021/10/27 00:26:58;;;;;;;41.53;26.65;;;;;;;9.28;80.83;100890.06;1785748;80;25532;-51
2021/10/27 00:29:25;;;;;;;43.68;25.30;;;;;;;9.26;80.75;100882.80;1785776;80;25779;-49
2021/10/27 00:31:53;;;;;;;40.35;25.15;;;;;;;9.23;80.69;100880.66;1785788;80;25370;-50
2021/10/27 00:34:21;;;;;;;42.00;25.50;;;;;;;9.20;80.76;100879.08;1785869;80;27483;-50
2021/10/27 00:36:49;;;;;;;45.70;26.75;;;;;;;9.18;80.56;100878.54;1785741;80;25429;-48
2021/10/27 00:39:16;;;;;;;44.98;26.57;;;;;;;9.14;80.64;100879.13;1785720;80;25500;-48
2021/10/27 00:41:45;;;;;;;42.25;26.00;;;;;;;9.10;81.05;100875.92;1785711;80;25519;-48
2021/10/27 00:44:25;;;;;;;46.73;26.12;;;;;;;9.06;80.73;100872.17;1785802;80;25539;-50
2021/10/27 00:47:08;;;;;;;44.45;26.10;;;;;;;9.04;80.80;100883.80;1785835;80;27989;-50
2021/10/27 00:49:39;;;;;;;43.08;26.95;;;;;;;9.00;80.82;100886.81;1785723;80;25729;-51
2021/10/27 00:52:11;;;;;;;42.33;26.82;;;;;;;8.96;81.21;100891.42;1785756;80;25509;-52
2021/10/27 00:54:43;;;;;;;47.30;26.62;;;;;;;8.92;81.43;100891.74;1785793;80;25603;-53
2021/10/27 00:57:12;;;;;;;38.23;25.62;;;;;;;8.90;81.33;100889.05;1785266;80;25564;-53
2021/10/27 00:59:43;;;;;;;43.40;25.75;;;;;;;8.86;81.42;100890.16;1785837;80;27337;-53
2021/10/27 01:02:13;;;;;;;48.13;28.20;;;;;;;8.85;81.48;100887.19;1785714;80;25515;-53
2021/10/27 01:04:41;;;;;;;42.88;26.85;;;;;;;8.86;81.82;100892.06;1785789;80;25386;-53
2021/10/27 01:07:10;;;;;;;41.88;25.82;;;;;;;8.85;81.84;100893.94;1785872;80;25472;-48
2021/10/27 01:09:39;;;;;;;43.83;26.43;;;;;;;8.85;81.81;100894.48;1786014;80;25418;-48
2021/10/27 01:12:09;;;;;;;47.00;26.77;;;;;;;8.86;82.04;100895.56;1785886;80;27354;-49
2021/10/27 01:14:44;;;;;;;46.25;27.80;;;;;;;8.87;82.11;100894.48;1785849;80;31759;-49
2021/10/27 01:17:15;;;;;;;44.33;26.73;;;;;;;8.89;82.30;100892.86;1784922;80;25457;-48
2021/10/27 01:19:56;;;;;;;47.95;27.90;;;;;;;8.90;82.34;100889.84;1785704;80;25508;-48
2021/10/27 01:22:31;;;;;;;41.25;26.40;;;;;;;8.90;82.46;100887.16;1785804;80;25380;-49
2021/10/27 01:25:00;;;;;;;42.27;26.45;;;;;;;8.89;82.34;100895.00;1785790;80;27944;-49
2021/10/27 01:27:30;;;;;;;47.58;27.95;;;;;;;8.89;82.33;100886.11;1785818;80;25503;-52
2021/10/27 01:29:59;;;;;;;46.28;27.52;;;;;;;8.88;82.44;100886.64;1785776;80;25541;-53
2021/10/27 01:32:31;;;;;;;43.10;27.55;;;;;;;8.88;82.39;100888.53;1785861;80;25530;-52
2021/10/27 01:35:00;;;;;;;40.17;26.73;;;;;;;8.87;82.49;100892.31;1785526;80;25523;-49
2021/10/27 01:37:27;;;;;;;40.83;26.53;;;;;;;8.85;82.00;100889.89;1785961;80;27983;-49
2021/10/27 01:39:57;;;;;;;46.13;25.23;;;;;;;8.82;81.89;100894.52;1785652;80;25619;-50
2021/10/27 01:42:25;;;;;;;46.45;25.80;;;;;;;8.79;81.77;100904.53;1785843;80;25437;-48
2021/10/27 01:44:52;;;;;;;44.27;26.30;;;;;;;8.75;81.87;100904.28;1785723;80;26280;-49
2021/10/27 01:47:20;;;;;;;45.15;25.95;;;;;;;8.73;81.86;100912.38;1785745;80;25508;-50
2021/10/27 01:49:48;;;;;;;43.65;26.25;;;;;;;8.70;81.94;100908.89;1785767;80;27538;-49
2021/10/27 01:52:17;;;;;;;46.10;27.10;;;;;;;8.71;82.21;100913.21;1785746;80;25525;-49
2021/10/27 01:54:45;;;;;;;43.40;25.57;;;;;;;8.70;82.45;100911.06;1785886;80;27130;-46
2021/10/27 01:57:13;;;;;;;39.67;25.72;;;;;;;8.71;82.61;100913.21;1785695;80;25492;-50
2021/10/27 01:59:41;;;;;;;43.52;27.00;;;;;;;8.71;82.61;100911.31;1784126;80;26037;-50
2021/10/27 02:02:08;;;;;;;44.67;27.67;;;;;;;8.73;82.78;100915.88;1782743;80;27955;-49
2021/10/27 02:04:36;;;;;;;41.33;26.35;;;;;;;8.75;82.88;100918.30;1782742;80;25518;-49
2021/10/27 02:07:03;;;;;;;45.35;27.15;;;;;;;8.77;83.15;100917.50;1782816;80;25537;-48
2021/10/27 02:09:31;;;;;;;41.98;26.57;;;;;;;8.77;83.02;100909.41;1782756;80;25504;-49
2021/10/27 02:11:59;;;;;;;40.58;25.32;;;;;;;8.79;82.98;100910.72;1782863;80;25540;-48
2021/10/27 02:14:29;;;;;;;45.67;27.62;;;;;;;8.82;82.96;100913.94;1782848;80;28134;-49
2021/10/27 02:16:57;;;;;;;45.43;26.97;;;;;;;8.81;83.20;100915.83;1782764;80;25840;-50
2021/10/27 02:19:24;;;;;;;41.45;25.92;;;;;;;8.83;83.07;100915.55;1782815;80;25410;-50
2021/10/27 02:21:52;;;;;;;42.85;26.57;;;;;;;8.82;82.84;100922.85;1782814;80;26127;-52
2021/10/27 02:24:20;;;;;;;40.23;26.02;;;;;;;8.83;82.94;100916.35;1782883;80;25568;-51
2021/10/27 02:26:48;;;;;;;42.33;26.52;;;;;;;8.84;82.97;100922.58;1782835;80;27306;-49
2021/10/27 02:29:15;;;;;;;48.17;26.80;;;;;;;8.87;83.07;100931.42;1782748;80;25529;-49
2021/10/27 02:31:43;;;;;;;44.53;26.45;;;;;;;8.88;83.04;100928.45;1782790;80;25509;-50
2021/10/27 02:34:11;;;;;;;38.63;25.12;;;;;;;8.89;83.08;100925.23;1782892;80;25499;-49
2021/10/27 02:36:39;;;;;;;46.98;25.65;;;;;;;8.89;82.99;100927.93;1782848;80;25523;-50
2021/10/27 02:39:08;;;;;;;44.63;25.48;;;;;;;8.91;83.10;100928.45;1782852;80;27563;-52
2021/10/27 02:41:36;;;;;;;43.83;25.50;;;;;;;8.91;83.09;100928.45;1782872;80;25590;-51
2021/10/27 02:44:06;;;;;;;38.90;25.60;;;;;;;8.91;83.12;100927.89;1782794;80;25524;-51
2021/10/27 02:46:34;;;;;;;44.05;26.50;;;;;;;8.92;83.27;100928.69;1782812;80;26046;-48
2021/10/27 02:49:02;;;;;;;37.05;25.82;;;;;;;8.93;83.16;100928.41;1782867;80;25599;-50
2021/10/27 02:51:30;;;;;;;41.90;26.45;;;;;;;8.93;83.09;100922.22;1782814;80;27391;-49
2021/10/27 02:53:58;;;;;;;39.92;26.23;;;;;;;8.93;83.07;100928.41;1782725;80;25553;-48
2021/10/27 02:56:25;;;;;;;38.33;26.50;;;;;;;8.92;82.92;100917.38;1782801;80;25378;-47
2021/10/27 02:58:53;;;;;;;46.63;26.07;;;;;;;8.90;82.88;100918.17;1782736;80;25520;-48
2021/10/27 03:01:21;;;;;;;43.28;24.57;;;;;;;8.90;82.91;100918.73;1782795;80;25552;-49
2021/10/27 03:03:49;;;;;;;41.70;25.82;;;;;;;8.87;82.75;100921.98;1782779;80;27382;-49
2021/10/27 03:06:20;;;;;;;40.08;24.90;;;;;;;8.83;82.73;100935.23;1782737;80;25788;-49
2021/10/27 03:08:47;;;;;;;39.27;25.17;;;;;;;8.79;82.61;100934.20;1782767;80;25354;-49
2021/10/27 03:11:15;;;;;;;39.60;26.65;;;;;;;8.76;82.61;100944.20;1782825;80;26402;-48
2021/10/27 03:13:43;;;;;;;42.10;25.43;;;;;;;8.71;82.68;100940.19;1782803;80;25519;-49
2021/10/27 03:16:11;;;;;;;37.23;25.60;;;;;;;8.66;82.64;100943.72;1782764;80;27369;-47
2021/10/27 03:18:38;;;;;;;42.85;26.02;;;;;;;8.61;82.61;100945.09;1782653;80;25508;-48
2021/10/27 03:21:06;;;;;;;42.50;24.90;;;;;;;8.53;82.57;100941.11;1782863;80;25366;-48
2021/10/27 03:23:34;;;;;;;40.70;25.27;;;;;;;8.48;82.49;100951.10;1782852;80;26372;-49
2021/10/27 03:26:01;;;;;;;44.10;26.27;;;;;;;8.40;82.95;100950.58;1782774;80;25550;-49
2021/10/27 03:28:29;;;;;;;39.78;26.62;;;;;;;8.34;82.89;100950.88;1782796;80;27943;-48
2021/10/27 03:30:59;;;;;;;43.25;26.85;;;;;;;8.30;82.90;100953.33;1782709;80;25435;-50
2021/10/27 03:33:27;;;;;;;42.50;26.85;;;;;;;8.24;83.08;100953.11;1782777;80;25501;-47
2021/10/27 03:35:55;;;;;;;45.38;27.02;;;;;;;8.19;82.91;100953.93;1782707;80;25618;-52
2021/10/27 03:38:22;;;;;;;47.60;27.32;;;;;;;8.13;83.05;100950.98;1782722;80;25530;-53
2021/10/27 03:40:50;;;;;;;43.38;27.27;;;;;;;8.07;83.26;100956.66;1782715;80;27389;-54
2021/10/27 03:43:19;;;;;;;45.95;27.10;;;;;;;8.00;83.19;100953.74;1782727;80;25948;-53
2021/10/27 03:45:47;;;;;;;42.70;27.30;;;;;;;7.95;83.75;100953.77;1782851;80;25503;-49
2021/10/27 03:48:14;;;;;;;43.58;26.85;;;;;;;7.90;83.49;100959.69;1782717;80;26329;-52
2021/10/27 03:50:42;;;;;;;47.73;28.52;;;;;;;7.84;83.72;100957.01;1782865;80;25513;-50
2021/10/27 03:53:10;;;;;;;42.25;27.48;;;;;;;7.79;83.78;100954.33;1782791;80;27366;-50
2021/10/27 03:55:38;;;;;;;47.33;27.58;;;;;;;7.73;83.84;100955.96;1782651;80;25576;-49
2021/10/27 03:58:06;;;;;;;45.73;27.58;;;;;;;7.67;83.82;100954.63;1782828;80;25479;-50
2021/10/27 04:00:36;;;;;;;45.12;27.93;;;;;;;7.61;84.14;100955.73;1784308;80;25521;-51
2021/10/27 04:03:04;;;;;;;46.75;27.85;;;;;;;7.54;84.27;100948.45;1785709;80;25429;-50
2021/10/27 04:05:33;;;;;;;47.73;28.20;;;;;;;7.50;84.52;100964.90;1785821;80;27034;-49
2021/10/27 04:08:00;;;;;;;45.33;29.27;;;;;;;7.45;84.76;100960.33;1785969;80;25584;-49
2021/10/27 04:10:28;;;;;;;45.80;27.35;;;;;;;7.39;84.83;100962.77;1785810;80;25806;-48
2021/10/27 04:12:55;;;;;;;48.28;27.45;;;;;;;7.34;84.94;100961.95;1785763;80;25513;-47
2021/10/27 04:15:23;;;;;;;47.00;29.90;;;;;;;7.29;84.80;100961.44;1785784;80;25575;-48
2021/10/27 04:17:50;;;;;;;45.08;28.27;;;;;;;7.24;84.96;100962.23;1785730;80;27452;-47
2021/10/27 04:20:18;;;;;;;43.45;28.38;;;;;;;7.19;84.96;100959.55;1785804;80;25539;-49
2021/10/27 04:22:45;;;;;;;45.17;28.45;;;;;;;7.15;85.12;100963.87;1785741;80;25490;-51
2021/10/27 04:25:14;;;;;;;45.83;28.67;;;;;;;7.10;85.13;100965.22;1785703;80;25527;-52
2021/10/27 04:27:41;;;;;;;51.55;30.62;;;;;;;7.06;85.43;100969.50;1785799;80;25446;-49
2021/10/27 04:30:10;;;;;;;45.10;28.98;;;;;;;7.03;85.62;100964.13;1785761;80;27354;-48
2021/10/27 04:32:38;;;;;;;47.95;29.18;;;;;;;6.98;85.64;100961.95;1785850;80;25438;-50
2021/10/27 04:35:08;;;;;;;53.95;29.30;;;;;;;6.94;85.82;100969.76;1785771;80;25482;-48
2021/10/27 04:37:39;;;;;;;51.63;29.37;;;;;;;6.88;85.82;100968.16;1785873;80;25487;-49
2021/10/27 04:40:13;;;;;;;53.92;30.15;;;;;;;6.84;85.68;100974.58;1785465;80;25626;-52
2021/10/27 04:42:41;;;;;;;47.90;29.95;;;;;;;6.80;85.92;100976.75;1783824;80;27564;-52
2021/10/27 04:45:11;;;;;;;44.98;27.13;;;;;;;6.74;86.26;100977.25;1785691;80;27303;-53
2021/10/27 04:47:42;;;;;;;;;;;;;;;6.69;86.18;100971.87;1788457;80;25626;-49
2021/10/27 04:50:10;;;;;;;45.48;28.73;;;;;;;6.65;86.21;100979.66;1785852;80;25559;-52
2021/10/27 04:52:37;;;;;;;50.70;30.10;;;;;;;6.61;86.59;100979.13;1785803;80;25441;-49
2021/10/27 04:55:07;;;;;;;50.30;28.77;;;;;;;6.57;86.82;100979.37;1785738;80;27326;-50
2021/10/27 04:57:35;;;;;;;46.30;30.02;;;;;;;6.54;86.85;100976.16;1785821;80;35063;-50
2021/10/27 05:00:05;;;;;;;49.20;29.57;;;;;;;6.51;86.81;100977.22;1785044;80;25493;-48
2021/10/27 05:02:33;;;;;;;54.73;30.02;;;;;;;6.47;86.91;100978.80;1782697;80;25462;-50
2021/10/27 05:05:01;;;;;;;50.52;29.95;;;;;;;6.44;86.96;100981.50;1782699;80;25533;-50
2021/10/27 05:07:29;;;;;;;51.95;29.63;;;;;;;6.41;87.03;100979.87;1782736;80;27389;-50
2021/10/27 05:09:58;;;;;;;49.57;28.23;;;;;;;6.38;86.78;100979.05;1782825;80;25536;-51
2021/10/27 05:12:27;;;;;;;51.08;27.65;;;;;;;6.34;87.25;100981.47;1782920;80;25363;-51
2021/10/27 05:14:55;;;;;;;47.38;28.87;;;;;;;6.31;87.33;100976.06;1782807;80;25411;-49
2021/10/27 05:17:23;;;;;;;47.27;29.55;;;;;;;6.29;87.29;100981.45;1782736;80;25547;-49
2021/10/27 05:19:51;;;;;;;49.13;30.35;;;;;;;6.26;87.44;100985.45;1782691;80;27409;-49
2021/10/27 05:22:19;;;;;;;49.30;28.07;;;;;;;6.25;87.66;100986.54;1782635;80;25571;-49
2021/10/27 05:24:48;;;;;;;46.77;29.55;;;;;;;6.23;87.56;100986.52;1782840;80;25564;-49
2021/10/27 05:27:16;;;;;;;48.40;28.65;;;;;;;6.20;87.88;100989.72;1782765;80;26146;-49
2021/10/27 05:29:45;;;;;;;45.25;28.87;;;;;;;6.14;88.03;100987.02;1782702;80;25511;-49
2021/10/27 05:32:13;;;;;;;48.48;28.80;;;;;;;6.13;88.35;100984.59;1782804;80;32746;-49
2021/10/27 05:34:42;;;;;;;50.15;29.30;;;;;;;6.11;88.27;100986.22;1782624;80;25141;-49
2021/10/27 05:37:11;;;;;;;49.20;29.72;;;;;;;6.11;88.12;100994.79;1782862;80;25449;-49
2021/10/27 05:39:38;;;;;;;53.42;31.97;;;;;;;6.08;88.38;100992.11;1782786;80;25735;-50
2021/10/27 05:42:10;;;;;;;48.55;30.50;;;;;;;6.07;88.53;100993.16;1782857;80;25399;-49
2021/10/27 05:44:37;;;;;;;48.73;29.70;;;;;;;6.08;88.53;100995.31;1782527;80;27438;-49
2021/10/27 05:47:05;;;;;;;51.90;30.60;;;;;;;6.07;88.51;100989.68;1782915;80;25438;-51
2021/10/27 05:49:40;;;;;;;50.88;29.72;;;;;;;6.22;88.53;101015.27;1782834;80;25374;-49
2021/10/27 05:57:41;;;;;;;48.38;30.80;;;;;;;6.07;88.98;101001.22;1782875;80;27708;-49
2021/10/27 06:00:04;;;;;;;50.15;30.97;;;;;;;6.08;89.11;101007.39;1779839;80;25716;-48
2021/10/27 06:02:32;;;;;;;49.95;29.95;;;;;;;6.07;89.28;101005.25;1785929;80;25575;-50
2021/10/27 06:05:02;;;;;;;54.53;33.30;;;;;;;6.08;89.10;101017.63;1785844;80;25576;-50
2021/10/27 06:07:32;;;;;;;52.98;29.92;;;;;;;6.12;89.37;101022.73;1785946;80;25512;-49
2021/10/27 06:10:00;;;;;;;52.95;32.17;;;;;;;6.12;89.27;101011.19;1786003;80;28248;-48
2021/10/27 06:12:29;;;;;;;50.05;31.12;;;;;;;6.16;89.25;101010.93;1785819;80;25437;-51
2021/10/27 06:14:57;;;;;;;50.55;30.48;;;;;;;6.19;89.36;101016.33;1786006;80;25492;-49
2021/10/27 06:17:25;;;;;;;52.62;32.48;;;;;;;6.21;89.38;101020.36;1785822;80;25571;-50
2021/10/27 06:19:54;;;;;;;51.85;31.82;;;;;;;6.25;89.36;101021.47;1785880;80;25523;-49
2021/10/27 06:22:22;;;;;;;47.20;31.90;;;;;;;6.28;89.46;101026.84;1785999;80;27423;-51
2021/10/27 06:24:53;;;;;;;54.42;31.35;;;;;;;6.27;89.37;101026.04;1785822;80;25596;-49
2021/10/27 06:27:21;;;;;;;54.00;30.92;;;;;;;6.30;89.47;101033.58;1785680;80;25425;-50
2021/10/27 06:30:05;;;;;;;53.53;31.77;;;;;;;6.35;89.78;101034.12;1786093;80;25507;-51
2021/10/27 06:35:16;;;;;;;60.25;33.50;;;;;;;6.60;90.52;101045.51;1785867;80;27420;-52
2021/10/27 06:48:35;;;;;;;56.83;31.62;;;;;;;7.17;89.15;101049.16;1785886;80;27494;-49
2021/10/27 06:51:03;;;;;;;;;;;;;;;7.29;89.13;101048.34;1788400;80;25563;-52
2021/10/27 06:53:31;;;;;;;50.45;29.65;;;;;;;7.39;88.80;101051.59;1785902;80;25507;-49
2021/10/27 06:56:00;;;;;;;51.92;30.02;;;;;;;7.45;88.53;101051.05;1785959;80;25622;-50
2021/10/27 06:58:31;;;;;;;49.45;30.65;;;;;;;7.54;88.52;101054.80;1785855;80;25414;-51
2021/10/27 07:01:00;;;;;;;52.62;32.45;;;;;;;7.70;89.42;101054.27;1784694;80;29521;-51
2021/10/27 07:03:42;;;;;;;51.70;29.72;;;;;;;7.94;89.43;101049.11;1782762;80;27380;-51
2021/10/27 07:17:04;;;;;;;46.35;28.47;;;;;;;8.92;87.09;101060.37;1782738;80;25354;-50
2021/10/27 07:19:32;;;;;;;48.52;29.67;;;;;;;9.21;86.98;101062.35;1782719;80;25410;-49
2021/10/27 07:22:02;;;;;;;46.00;28.73;;;;;;;9.41;86.64;101061.38;1782770;80;25532;-49
2021/10/27 07:24:33;;;;;;;46.42;27.67;;;;;;;9.73;86.61;101060.83;1782776;80;25515;-49
2021/10/27 07:27:06;;;;;;;50.33;28.42;;;;;;;10.00;85.24;101066.81;1782819;80;27349;-51
2021/10/27 07:29:34;;;;;;;42.55;27.80;;;;;;;10.33;85.41;101058.35;1782684;80;27317;-51
2021/10/27 07:32:05;;;;;;;44.53;28.00;;;;;;;10.54;84.15;101056.75;1782921;80;25441;-48
2021/10/27 07:34:37;;;;;;;48.45;28.25;;;;;;;10.87;84.13;101052.27;1782729;80;27001;-51
2021/10/27 07:40:07;;;;;;;39.67;26.00;;;;;;;11.05;82.44;101052.02;1782739;80;28072;-48
2021/10/27 07:42:28;;;;;;;37.90;25.45;;;;;;;11.39;82.29;101053.64;1781469;80;25607;-53
2021/10/27 07:44:57;;;;;;;43.28;25.92;;;;;;;11.58;80.89;101057.13;1783093;80;25549;-49
2021/10/27 07:47:25;;;;;;;39.92;25.45;;;;;;;11.43;79.03;101061.45;1782704;80;27639;-49
2021/10/27 07:49:52;;;;;;;40.67;26.00;;;;;;;11.35;79.12;101071.59;1782776;80;25490;-49
2021/10/27 07:52:20;;;;;;;38.23;26.05;;;;;;;11.20;78.47;101072.09;1782747;80;27380;-51
2021/10/27 07:54:48;;;;;;;46.45;25.77;;;;;;;11.13;78.05;101066.78;1782703;80;25550;-49
2021/10/27 07:57:16;;;;;;;37.08;26.10;;;;;;;11.00;78.49;101065.63;1782837;80;25405;-49
2021/10/27 07:59:44;;;;;;;41.15;25.30;;;;;;;10.85;77.99;101068.00;1782679;80;25557;-51
2021/10/27 08:02:11;;;;;;;46.48;28.27;;;;;;;10.73;78.45;101079.80;1784707;80;25386;-51
2021/10/27 08:04:39;;;;;;;40.03;25.40;;;;;;;10.66;78.72;101065.28;1785825;80;27312;-50
2021/10/27 08:07:08;;;;;;;40.23;24.18;;;;;;;10.58;78.96;101063.21;1785720;80;25560;-49
2021/10/27 08:09:36;;;;;;;42.45;25.48;;;;;;;10.61;79.20;101068.84;1785771;80;25398;-53
2021/10/27 08:12:06;;;;;;;40.80;25.40;;;;;;;10.59;78.77;101062.09;1785846;80;25608;-48
2021/10/27 08:14:34;;;;;;;40.70;24.98;;;;;;;10.62;79.35;101065.05;1785813;80;25525;-48
2021/10/27 08:17:02;;;;;;;40.92;26.02;;;;;;;10.69;79.62;101070.64;1785786;80;27930;-49
2021/10/27 08:19:32;;;;;;;37.40;24.70;;;;;;;10.80;79.60;101077.53;1785688;80;25568;-47
2021/10/27 08:22:01;;;;;;;40.78;25.70;;;;;;;10.83;79.37;101079.11;1785951;80;25547;-52
2021/10/27 08:24:28;;;;;;;42.15;25.72;;;;;;;10.81;78.87;101073.72;1785861;80;25546;-49
2021/10/27 08:27:05;;;;;;;41.10;25.55;;;;;;;10.77;78.97;101066.73;1785777;80;25343;-49
2021/10/27 08:29:28;;;;;;;37.40;24.47;;;;;;;10.83;79.02;101072.91;1784447;80;27477;-50
2021/10/27 08:31:58;;;;;;;39.05;25.30;;;;;;;10.87;79.17;101079.33;1785639;80;25540;-52
2021/10/27 08:34:41;;;;;;;38.98;24.00;;;;;;;10.83;78.82;101076.41;1785585;80;25540;-52
2021/10/27 08:37:09;;;;;;;39.85;24.98;;;;;;;10.88;79.15;101081.48;1785779;80;25488;-53
2021/10/27 08:39:39;;;;;;;41.20;26.57;;;;;;;10.96;79.44;101069.45;1786039;80;25569;-50
2021/10/27 08:42:09;;;;;;;42.05;25.62;;;;;;;10.92;78.71;101071.70;1785746;80;27459;-50
2021/10/27 08:44:37;;;;;;;39.65;26.00;;;;;;;10.90;78.51;101078.75;1785777;80;25418;-52
2021/10/27 08:47:05;;;;;;;43.00;24.50;;;;;;;10.99;78.69;101074.28;1785810;80;25470;-50
2021/10/27 08:49:33;;;;;;;42.35;25.80;;;;;;;11.29;79.43;101079.53;1785773;80;25574;-51
2021/10/27 08:52:05;;;;;;;39.80;24.23;;;;;;;11.59;79.86;101077.72;1785811;80;25416;-52
2021/10/27 08:54:33;;;;;;;36.77;24.07;;;;;;;11.86;78.90;101080.78;1785506;80;27496;-50
2021/10/27 08:57:13;;;;;;;39.42;24.98;;;;;;;11.88;77.65;101085.35;1759437;80;25471;-52
2021/10/27 09:07:32;;;;;;;41.37;24.35;;;;;;;12.22;77.25;101089.66;1782670;80;29566;-51
2021/10/27 09:36:25;;;;;;;35.50;21.25;;;;;;;12.29;75.58;101070.53;1782915;80;28093;-51
2021/10/27 10:06:46;;;;;;;24.85;15.30;;;;;;;14.08;67.97;101055.27;1756370;81;25731;-52
2021/10/27 10:09:16;;;;;;;27.25;14.93;;;;;;;14.15;68.84;101054.81;1768671;81;25418;-52
2021/10/27 10:11:46;;;;;;;22.42;14.30;;;;;;;14.25;68.98;101053.70;1756375;81;25662;-52
2021/10/27 10:14:14;;;;;;;23.02;13.85;;;;;;;14.26;68.17;101049.88;1769398;81;25399;-49
2021/10/27 10:16:46;;;;;;;24.02;13.95;;;;;;;14.25;68.87;101057.78;1756364;81;29494;-47
2021/10/27 10:19:19;;;;;;;26.50;16.02;;;;;;;14.18;68.19;101062.32;1769321;81;25434;-48
2021/10/27 10:21:49;;;;;;;21.45;13.78;;;;;;;14.15;68.06;101054.25;1769359;81;25497;-47
2021/10/27 10:24:26;;;;;;;20.25;13.32;;;;;;;14.06;68.17;101054.75;1756337;81;25403;-51
2021/10/27 10:27:07;;;;;;;20.45;12.98;;;;;;;14.05;67.24;101041.49;1769392;80;25411;-49
2021/10/27 10:29:48;;;;;;;24.85;12.90;;;;;;;13.99;68.08;101058.48;1755871;81;27408;-48
2021/10/27 10:32:27;;;;;;;18.60;13.25;;;;;;;13.95;67.45;101050.72;1767247;81;25404;-51
2021/10/27 10:35:24;;;;;;;18.75;12.88;;;;;;;13.90;67.81;101052.22;1756372;81;25395;-52
2021/10/27 10:38:12;;;;;;;18.55;11.65;;;;;;;13.86;68.01;101053.41;1768636;81;25539;-50
2021/10/27 10:40:51;;;;;;;19.62;12.55;;;;;;;13.91;68.46;101050.55;1755658;81;25613;-47
2021/10/27 10:43:36;;;;;;;22.10;12.82;;;;;;;13.90;68.25;101048.94;1768067;81;27377;-51
2021/10/27 10:46:00;;;;;;;15.13;10.98;;;;;;;13.92;68.27;101050.77;1753581;81;25495;-47
2021/10/27 11:40:12;;;;;;;12.90;7.25;;;;;;;17.44;62.54;101022.53;1755224;81;29482;-50
2021/10/27 11:43:02;;;;;;;15.70;7.22;;;;;;;18.10;63.60;101012.05;1752870;81;25786;-47
2021/10/27 11:48:05;;;;;;;10.95;7.97;;;;;;;19.33;61.33;101010.16;1755253;81;25445;-50
2021/10/27 11:50:38;;;;;;;10.85;7.08;;;;;;;19.54;54.38;101010.69;1755124;81;25438;-52
2021/10/27 11:53:08;;;;;;;11.48;7.08;;;;;;;19.59;57.34;101012.39;1755327;81;27319;-50
2021/10/27 11:55:37;;;;;;;14.15;7.03;;;;;;;19.67;55.54;101009.27;1753493;81;25639;-48
2021/10/27 11:58:06;;;;;;;11.00;7.00;;;;;;;19.32;53.27;101014.03;1758597;81;25371;-48
2021/10/27 12:00:42;;;;;;;11.73;7.35;;;;;;;18.91;54.93;101005.08;1776985;80;25582;-49
2021/10/27 12:03:17;;;;;;;15.60;7.83;;;;;;;18.58;54.20;101014.28;1792685;79;25391;-49
2021/10/27 12:11:15;;;;;;;12.00;7.92;;;;;;;17.55;54.55;101007.30;1774323;80;25537;-50
2021/10/27 12:13:55;;;;;;;14.95;8.43;;;;;;;17.15;55.27;101007.06;1793550;80;25566;-52
2021/10/27 12:19:25;;;;;;;12.80;8.10;;;;;;;16.80;55.86;101005.41;1793003;80;27382;-50
2021/10/27 12:21:59;;;;;;;13.20;7.37;;;;;;;16.66;57.26;101004.07;1760637;81;25650;-49
2021/10/27 12:24:31;;;;;;;12.18;8.10;;;;;;;16.61;57.52;100999.02;1774073;80;25512;-53
2021/10/27 12:27:08;;;;;;;12.90;8.03;;;;;;;16.39;56.19;100993.89;1794390;80;26082;-52
2021/10/27 12:29:39;;;;;;;12.82;7.75;;;;;;;16.17;56.89;100999.07;1727881;83;25424;-52
2021/10/27 12:32:18;;;;;;;12.25;7.85;;;;;;;15.98;57.05;101000.86;1729043;83;27045;-50
2021/10/27 12:34:56;;;;;;;14.45;8.35;;;;;;;15.78;57.67;100987.38;1728620;83;25765;-51
2021/10/27 12:40:31;;;;;;;14.83;7.70;;;;;;;15.60;58.98;100985.27;1728803;83;25470;-52
2021/10/27 12:43:14;;;;;;;11.10;6.90;;;;;;;15.57;58.95;100985.91;1667504;86;25445;-50
2021/10/27 12:45:49;;;;;;;12.25;7.92;;;;;;;15.58;59.33;100990.22;1667586;86;28062;-53
2021/10/27 12:48:22;;;;;;;9.98;7.50;;;;;;;15.53;59.21;100987.67;1667547;86;25987;-52
2021/10/27 12:50:57;;;;;;;11.38;7.20;;;;;;;15.41;58.92;100989.70;1667684;86;25509;-49
2021/10/27 12:53:37;;;;;;;11.70;6.37;;;;;;;15.31;59.36;100988.14;1667111;86;25532;-52
2021/10/27 12:56:13;;;;;;;14.93;7.60;;;;;;;15.25;59.74;100986.13;1667769;86;25463;-53
2021/10/27 12:58:56;;;;;;;14.10;7.53;;;;;;;15.21;59.95;100990.64;1646672;86;27365;-49
2021/10/27 13:01:42;;;;;;;13.30;7.40;;;;;;;15.13;59.63;100982.70;1667266;86;25764;-51
2021/10/27 13:04:28;;;;;;;13.40;7.87;;;;;;;15.00;60.00;100992.41;1665798;86;25514;-52
2021/10/27 13:07:03;;;;;;;14.73;7.55;;;;;;;14.91;60.40;100989.16;1676542;84;25660;-52
2021/10/27 13:17:58;;;;;;;13.08;7.20;;;;;;;14.69;61.18;100992.02;1682066;84;25711;-50
2021/10/27 13:23:24;;;;;;;10.40;7.55;;;;;;;14.60;61.28;100975.69;1747977;80;25674;-47
2021/10/27 13:31:15;;;;;;;11.20;7.60;;;;;;;14.68;61.60;100973.53;1772840;80;25588;-51
2021/10/27 13:33:42;;;;;;;10.90;6.65;;;;;;;14.66;60.93;100979.86;1772841;79;25542;-50
2021/10/27 13:36:11;;;;;;;13.28;7.33;;;;;;;14.58;61.17;100975.18;1772838;80;25670;-52
2021/10/27 13:38:39;;;;;;;12.05;6.92;;;;;;;14.55;61.41;100977.96;1772715;80;29360;-51
2021/10/27 13:41:08;;;;;;;12.73;6.95;;;;;;;14.52;61.67;100974.55;1772642;80;25513;-51
2021/10/27 13:43:41;;;;;;;11.50;7.50;;;;;;;14.49;61.71;100975.71;1772929;80;25533;-50
2021/10/27 13:49:05;;;;;;;12.65;7.20;;;;;;;14.44;61.64;100985.39;1772846;80;25516;-51
2021/10/27 14:08:06;;;;;;;14.30;7.17;;;;;;;14.15;62.50;100994.96;1772807;80;25570;-47
2021/10/27 14:10:42;;;;;;;14.43;7.22;;;;;;;14.12;62.60;100995.59;1771796;80;25533;-50
2021/10/27 14:16:16;;;;;;;12.53;7.20;;;;;;;14.05;62.89;100994.69;1772950;80;25373;-51
2021/10/27 14:50:26;;;;;;;13.15;7.67;;;;;;;13.59;64.07;100968.19;1772820;80;25530;-52
2021/10/27 14:51:08;;;;;;;13.62;7.42;;;;;;;13.58;64.12;100965.22;1768702;80;25585;-51
2021/10/27 14:58:57;;;;;;;13.32;7.47;;;;;;;13.54;64.16;100960.17;1772902;80;25415;-50
2021/10/27 15:21:20;;;;;;;16.73;9.03;;;;;;;13.31;65.09;100951.78;1771267;81;25370;-48
2021/10/27 15:42:35;;;;;;;17.50;8.98;;;;;;;13.15;65.99;100968.47;1737879;82;25386;-50
2021/10/27 15:45:18;;;;;;;13.78;8.88;;;;;;;13.12;66.01;100966.37;1734261;82;25584;-49
2021/10/27 15:50:41;;;;;;;18.98;10.32;;;;;;;13.09;66.08;100957.47;1692638;84;25460;-48
2021/10/27 15:53:07;;;;;;;11.85;8.55;;;;;;;13.06;66.19;100956.19;1736126;82;27241;-52
2021/10/27 15:55:40;;;;;;;16.12;9.73;;;;;;;13.06;66.33;100959.47;1692481;84;25456;-51
2021/10/27 15:58:06;;;;;;;15.60;10.03;;;;;;;13.02;66.33;100964.70;1737224;82;25731;-49
2021/10/27 16:00:38;;;;;;;17.80;8.93;;;;;;;13.01;66.36;100963.67;1737694;82;25617;-49
2021/10/27 16:03:08;;;;;;;13.28;8.93;;;;;;;12.98;66.45;100964.28;1691949;84;25473;-51
2021/10/27 16:05:41;;;;;;;15.55;9.20;;;;;;;12.98;66.50;100965.08;1741938;82;27250;-51
2021/10/27 16:08:14;;;;;;;15.95;8.25;;;;;;;12.97;66.63;100968.89;1695808;84;26021;-51